Time;durP1;ratioP1;P1;durP2;ratioP2;P2;SDS_P1;SDS_P2;PMS_P1;PMS_P2;Temp;Humidity;BMP_temperature;BMP_pressure;BME280_temperature;BME280_humidity;BME280_pressure;Samples;Min_cycle;Max_cycle;Signal;HPM_P1;HPM_P2
2024/01/08 00:00:13;;;;;;;5.22;3.47;;;;;;;-2.02;100.00;102196.31;6189140;23;20561;-84
2024/01/08 00:02:40;;;;;;;7.05;3.58;;;;;;;-2.09;100.00;102206.06;6211890;23;20020;-84
2024/01/08 00:05:07;;;;;;;4.45;4.03;;;;;;;-2.02;100.00;102215.94;6214341;23;20089;-85
2024/01/08 00:07:35;;;;;;;5.57;3.80;;;;;;;-1.96;100.00;102213.78;6188862;23;20028;-83
2024/01/08 00:10:02;;;;;;;7.63;3.80;;;;;;;-2.07;100.00;102214.78;6213981;23;20441;-83
2024/01/08 00:12:29;;;;;;;4.22;3.65;;;;;;;-2.23;100.00;102210.25;6212636;23;20016;-83
2024/01/08 00:14:56;;;;;;;9.35;3.92;;;;;;;-2.23;100.00;102211.16;6212474;23;20031;-84
2024/01/08 00:17:23;;;;;;;5.38;4.05;;;;;;;-2.23;100.00;102213.72;6214148;23;20058;-82
2024/01/08 00:19:49;;;;;;;5.78;3.95;;;;;;;-2.16;100.00;102221.03;6189251;23;20187;-82
2024/01/08 00:22:19;;;;;;;11.15;4.78;;;;;;;-2.17;100.00;102205.53;6184530;23;20027;-84
2024/01/08 00:24:48;;;;;;;5.75;3.58;;;;;;;-2.16;100.00;102205.63;6188478;23;20111;-82
2024/01/08 00:27:15;;;;;;;4.20;3.08;;;;;;;-2.22;100.00;102222.28;6187701;23;20024;-85
2024/01/08 00:29:41;;;;;;;5.95;3.75;;;;;;;-2.27;100.00;102219.41;6189130;23;20130;-85
2024/01/08 00:32:08;;;;;;;6.10;4.80;;;;;;;-2.20;100.00;102218.16;6210503;23;20143;-84
2024/01/08 00:34:36;;;;;;;5.35;3.92;;;;;;;-2.20;100.00;102210.47;6187064;23;20512;-84
2024/01/08 00:37:03;;;;;;;10.20;4.55;;;;;;;-2.09;100.00;102221.47;6187164;23;20680;-84
2024/01/08 00:39:32;;;;;;;8.00;4.32;;;;;;;-2.14;100.00;102216.00;6187571;23;20048;-83
2024/01/08 00:41:59;;;;;;;6.20;4.30;;;;;;;-2.11;100.00;102230.72;6184903;23;20031;-83
2024/01/08 00:44:31;;;;;;;3.53;3.20;;;;;;;-2.12;100.00;102221.25;6186236;23;20038;-84
2024/01/08 00:46:58;;;;;;;6.68;4.60;;;;;;;-2.24;100.00;102224.75;6210900;23;20020;-84
2024/01/08 00:49:25;;;;;;;5.93;3.63;;;;;;;-2.33;100.00;102222.44;6186708;23;20058;-83
2024/01/08 00:51:51;;;;;;;6.95;3.75;;;;;;;-2.33;100.00;102225.00;6209599;23;20141;-83
2024/01/08 00:54:19;;;;;;;5.28;3.65;;;;;;;-2.26;100.00;102225.44;6185807;23;20079;-82
2024/01/08 00:56:46;;;;;;;6.85;4.43;;;;;;;-2.25;100.00;102225.53;6185958;23;20124;-84
2024/01/08 00:59:13;;;;;;;7.20;4.32;;;;;;;-2.25;100.00;102228.09;6187711;23;20039;-84
2024/01/08 01:01:39;;;;;;;5.22;4.03;;;;;;;-2.19;100.00;102227.63;6184139;23;20027;-84
2024/01/08 01:04:06;;;;;;;5.72;4.70;;;;;;;-2.18;100.00;102224.28;6186057;23;20024;-84
2024/01/08 01:06:33;;;;;;;6.78;4.43;;;;;;;-2.14;100.00;102233.09;6212400;23;20026;-82
2024/01/08 01:08:59;;;;;;;7.75;4.35;;;;;;;-2.18;100.00;102226.84;6186454;23;20035;-82
2024/01/08 01:11:26;;;;;;;7.60;5.00;;;;;;;-2.18;100.00;102225.19;6183599;23;20026;-84
2024/01/08 01:13:53;;;;;;;7.55;4.47;;;;;;;-2.15;100.00;102227.06;6185876;23;20764;-83
2024/01/08 01:16:26;;;;;;;5.35;4.00;;;;;;;-2.06;100.00;102229.34;6211015;23;20020;-83
2024/01/08 01:18:53;;;;;;;5.95;4.13;;;;;;;-2.08;100.00;102229.25;6187161;23;20024;-85
2024/01/08 01:21:22;;;;;;;8.07;4.82;;;;;;;-2.20;100.00;102233.56;6184381;23;20077;-85
2024/01/08 01:23:49;;;;;;;5.80;3.95;;;;;;;-2.33;100.00;102240.41;6185250;23;20027;-84
2024/01/08 01:26:16;;;;;;;7.50;4.15;;;;;;;-2.18;100.00;102237.09;6210585;23;20023;-84
2024/01/08 01:28:43;;;;;;;5.55;4.30;;;;;;;-2.25;100.00;102235.81;6210249;23;20412;-84
2024/01/08 01:31:13;;;;;;;6.75;4.57;;;;;;;-2.21;100.00;102235.22;6208481;23;20027;-84
2024/01/08 01:33:40;;;;;;;6.75;4.32;;;;;;;-2.24;100.00;102239.25;6210153;23;20039;-84
2024/01/08 01:36:07;;;;;;;5.22;4.40;;;;;;;-2.20;100.00;102239.56;6186080;23;20487;-84
2024/01/08 01:38:34;;;;;;;8.65;5.00;;;;;;;-2.12;100.00;102245.22;6185778;23;20019;-84
2024/01/08 01:41:03;;;;;;;5.15;3.60;;;;;;;-2.15;100.00;102242.47;6209209;23;20610;-82
2024/01/08 01:43:33;;;;;;;4.97;4.10;;;;;;;-2.24;100.00;102247.84;6183002;23;20414;-84
2024/01/08 01:46:08;;;;;;;9.45;5.90;;;;;;;-2.34;100.00;102245.44;6186107;23;20127;-83
2024/01/08 01:48:41;;;;;;;7.95;4.30;;;;;;;-2.43;100.00;102243.09;6184775;23;20034;-82
2024/01/08 01:51:10;;;;;;;6.35;4.13;;;;;;;-2.23;100.00;102246.16;6208109;23;20110;-82
2024/01/08 01:53:37;;;;;;;7.13;4.32;;;;;;;-2.34;100.00;102253.13;6184265;23;20051;-84
2024/01/08 01:56:06;;;;;;;9.27;4.25;;;;;;;-2.27;100.00;102246.75;6184515;23;20012;-84
2024/01/08 01:58:34;;;;;;;7.63;4.63;;;;;;;-2.34;100.00;102237.75;6186359;23;20043;-85
2024/01/08 02:01:02;;;;;;;6.65;4.28;;;;;;;-2.46;100.00;102249.69;6182011;23;20030;-82
2024/01/08 02:03:30;;;;;;;8.40;4.30;;;;;;;-2.32;100.00;102243.88;6209813;23;20057;-83
2024/01/08 02:05:57;;;;;;;4.57;4.07;;;;;;;-2.37;100.00;102248.66;6211053;23;20038;-84
2024/01/08 02:08:27;;;;;;;5.30;4.25;;;;;;;-2.37;100.00;102252.94;6209264;23;20031;-84
2024/01/08 02:10:58;;;;;;;5.75;4.65;;;;;;;-2.39;100.00;102244.22;6183437;23;20040;-82
2024/01/08 02:13:24;;;;;;;7.43;4.43;;;;;;;-2.28;100.00;102240.72;6184522;23;20023;-83
2024/01/08 02:15:51;;;;;;;6.80;4.30;;;;;;;-2.21;100.00;102244.59;6208904;23;20032;-83
2024/01/08 02:18:20;;;;;;;6.50;4.13;;;;;;;-2.28;100.00;102247.53;6183465;23;20444;-84
2024/01/08 02:20:47;;;;;;;6.32;4.10;;;;;;;-2.15;100.00;102245.03;6182328;23;20736;-83
2024/01/08 02:23:13;;;;;;;6.43;3.70;;;;;;;-2.20;100.00;102249.84;6180265;23;20075;-83
2024/01/08 02:25:40;;;;;;;8.25;3.80;;;;;;;-2.13;100.00;102255.41;6210112;23;20016;-83
2024/01/08 02:28:10;;;;;;;8.07;4.13;;;;;;;-2.16;100.00;102246.69;6185324;23;20545;-83
2024/01/08 02:30:36;;;;;;;6.03;3.53;;;;;;;-2.28;100.00;102247.53;6185483;23;20020;-83
2024/01/08 02:33:03;;;;;;;6.05;4.13;;;;;;;-2.16;100.00;102243.25;6182755;23;20145;-82
2024/01/08 02:35:29;;;;;;;5.78;4.20;;;;;;;-2.14;100.00;102253.59;6187305;23;20020;-83
2024/01/08 02:37:56;;;;;;;8.48;4.10;;;;;;;-2.14;100.00;102251.91;6186738;23;20050;-82
2024/01/08 02:40:23;;;;;;;6.38;4.63;;;;;;;-2.10;100.00;102250.47;6186910;23;20437;-82
2024/01/08 02:42:49;;;;;;;6.97;4.60;;;;;;;-2.05;100.00;102254.22;6209131;23;20027;-84
2024/01/08 02:45:21;;;;;;;5.20;3.50;;;;;;;-2.10;100.00;102258.16;6186635;23;20032;-84
2024/01/08 02:47:48;;;;;;;3.60;3.20;;;;;;;-2.19;100.00;102249.06;6186198;23;20266;-84
2024/01/08 02:50:14;;;;;;;3.92;3.55;;;;;;;-2.03;100.00;102256.13;6210290;23;20023;-82
2024/01/08 02:52:44;;;;;;;4.88;3.30;;;;;;;-2.04;100.00;102259.47;6183268;23;20024;-82
2024/01/08 02:55:11;;;;;;;4.90;3.60;;;;;;;-1.99;100.00;102264.94;6185691;23;20024;-81
2024/01/08 02:57:38;;;;;;;9.55;3.85;;;;;;;-1.95;100.00;102261.78;6210318;23;20789;-82
2024/01/08 03:00:06;;;;;;;3.55;2.75;;;;;;;-1.95;100.00;102259.22;6211302;23;20455;-84
2024/01/08 03:02:34;;;;;;;7.50;3.45;;;;;;;-1.98;100.00;102259.00;6184368;23;20254;-82
2024/01/08 03:05:04;;;;;;;4.43;2.60;;;;;;;-1.98;100.00;102261.56;6211847;23;20024;-84
2024/01/08 03:07:30;;;;;;;6.30;3.20;;;;;;;-1.90;100.00;102267.22;6210723;23;20412;-84
2024/01/08 03:09:58;;;;;;;3.00;2.30;;;;;;;-1.89;100.00;102269.91;6186355;23;20101;-84
2024/01/08 03:12:26;;;;;;;7.18;2.35;;;;;;;-2.03;100.00;102278.34;6182627;23;20023;-82
2024/01/08 03:14:53;;;;;;;3.35;2.80;;;;;;;-2.05;100.00;102278.22;6208443;23;20020;-83
2024/01/08 03:17:20;;;;;;;4.22;3.05;;;;;;;-2.03;100.00;102286.91;6208762;23;20020;-83
2024/01/08 03:19:46;;;;;;;5.85;3.22;;;;;;;-2.09;100.00;102276.22;6210584;23;20024;-83
2024/01/08 03:22:14;;;;;;;4.90;2.95;;;;;;;-2.11;100.00;102280.38;6183724;23;20131;-83
2024/01/08 03:24:40;;;;;;;5.22;3.47;;;;;;;-2.04;100.00;102279.13;6183635;23;20795;-83
2024/01/08 03:27:10;;;;;;;5.07;3.03;;;;;;;-1.98;100.00;102276.97;6208744;23;20770;-84
2024/01/08 03:29:37;;;;;;;4.05;3.10;;;;;;;-2.07;100.00;102281.47;6211544;23;20471;-82
2024/01/08 03:32:04;;;;;;;5.03;3.45;;;;;;;-2.11;100.00;102275.25;6207713;23;20031;-83
2024/01/08 03:34:32;;;;;;;4.00;3.50;;;;;;;-2.04;100.00;102291.94;6210972;23;20032;-83
2024/01/08 03:37:01;;;;;;;6.15;3.50;;;;;;;-2.05;100.00;102283.34;6211089;23;20016;-83
2024/01/08 03:39:28;;;;;;;6.93;3.95;;;;;;;-2.16;100.00;102284.28;6185243;23;20408;-83
2024/01/08 03:41:56;;;;;;;5.10;4.07;;;;;;;-2.13;100.00;102289.63;6207880;23;20043;-84
2024/01/08 03:44:23;;;;;;;6.53;3.75;;;;;;;-2.03;100.00;102284.34;6185394;23;20089;-83
2024/01/08 03:46:50;;;;;;;5.28;3.40;;;;;;;-2.03;100.00;102281.78;6209628;23;20707;-83
2024/01/08 03:49:17;;;;;;;4.60;3.83;;;;;;;-1.94;100.00;102273.84;6210586;23;20055;-82
2024/01/08 03:51:44;;;;;;;8.32;3.60;;;;;;;-2.13;100.00;102279.38;6179085;23;20035;-85
2024/01/08 03:54:11;;;;;;;5.32;3.70;;;;;;;-2.28;100.00;102278.28;6206340;23;20396;-81
2024/01/08 03:56:38;;;;;;;4.30;3.50;;;;;;;-2.41;100.00;102279.13;6183629;23;20047;-83
2024/01/08 03:59:05;;;;;;;6.47;4.38;;;;;;;-2.35;100.00;102277.91;6209965;23;20023;-83
2024/01/08 04:01:31;;;;;;;7.28;4.35;;;;;;;-2.36;100.00;102285.47;6183168;23;20059;-86
2024/01/08 04:03:58;;;;;;;5.00;3.65;;;;;;;-2.23;100.00;102297.47;6209494;23;20094;-82
2024/01/08 04:06:23;;;;;;;8.55;4.88;;;;;;;-2.14;100.00;102292.09;6185384;23;20020;-82
2024/01/08 04:08:50;;;;;;;4.93;3.35;;;;;;;-2.17;100.00;102283.38;6185649;23;20024;-84
2024/01/08 04:11:17;;;;;;;4.78;3.00;;;;;;;-2.28;100.00;102283.44;6184032;23;20024;-83
2024/01/08 04:13:43;;;;;;;5.50;3.97;;;;;;;-2.24;100.00;102290.56;6210023;23;20058;-82
2024/01/08 04:16:10;;;;;;;8.60;3.47;;;;;;;-2.30;100.00;102287.59;6182808;23;20024;-83
2024/01/08 04:18:36;;;;;;;5.82;4.25;;;;;;;-2.42;100.00;102290.19;6185425;23;20020;-84
2024/01/08 04:21:06;;;;;;;7.60;3.78;;;;;;;-2.46;100.00;102295.84;6207351;23;20043;-84
2024/01/08 04:23:35;;;;;;;5.57;3.55;;;;;;;-2.34;100.00;102299.28;6185217;23;20550;-84
2024/01/08 04:26:04;;;;;;;10.10;4.15;;;;;;;-2.45;100.00;102295.06;6210590;23;20114;-85
2024/01/08 04:28:33;;;;;;;4.72;3.38;;;;;;;-2.42;100.00;102291.06;6211419;23;20024;-84
2024/01/08 04:31:00;;;;;;;5.40;3.50;;;;;;;-2.23;100.00;102300.94;6185513;23;20050;-82
2024/01/08 04:33:26;;;;;;;7.30;3.70;;;;;;;-2.31;100.00;102304.63;6184249;23;20020;-84
2024/01/08 04:35:53;;;;;;;4.45;2.70;;;;;;;-2.29;100.00;102305.63;6185533;23;20102;-83
2024/01/08 04:38:20;;;;;;;6.05;3.42;;;;;;;-2.40;100.00;102302.31;6184907;23;20096;-82
2024/01/08 04:40:47;;;;;;;8.85;3.53;;;;;;;-2.22;100.00;102315.53;6185494;23;20326;-83
2024/01/08 04:43:13;;;;;;;5.32;3.72;;;;;;;-2.25;100.00;102315.31;6183800;23;20440;-83
2024/01/08 04:45:40;;;;;;;5.85;4.03;;;;;;;-2.38;100.00;102311.00;6210603;23;20400;-83
2024/01/08 04:48:07;;;;;;;4.63;3.17;;;;;;;-2.44;100.00;102302.00;6209419;23;20115;-83
2024/01/08 04:50:33;;;;;;;5.22;3.15;;;;;;;-2.58;100.00;102318.94;6186314;23;20741;-84
2024/01/08 04:53:00;;;;;;;3.40;2.88;;;;;;;-2.60;100.00;102318.84;6183894;23;20123;-84
2024/01/08 04:55:27;;;;;;;4.78;2.72;;;;;;;-2.61;100.00;102322.19;6186073;23;20016;-84
2024/01/08 04:57:56;;;;;;;3.33;3.03;;;;;;;-2.49;100.00;102327.28;6210791;23;20030;-83
2024/01/08 05:00:23;;;;;;;3.47;2.95;;;;;;;-2.48;100.00;102328.22;6185415;23;20054;-84
2024/01/08 05:02:49;;;;;;;5.85;3.45;;;;;;;-2.49;100.00;102332.44;6183020;23;20020;-84
2024/01/08 05:05:17;;;;;;;3.92;3.15;;;;;;;-2.47;100.00;102337.69;6184092;23;20024;-84
2024/01/08 05:07:43;;;;;;;13.50;4.32;;;;;;;-2.47;100.00;102335.13;6183912;23;20303;-83
2024/01/08 05:10:12;;;;;;;5.45;3.38;;;;;;;-2.65;100.00;102327.88;6184767;23;20025;-83
2024/01/08 05:12:39;;;;;;;3.00;2.70;;;;;;;-2.69;100.00;102331.88;6207545;23;20028;-83
2024/01/08 05:15:06;;;;;;;3.80;2.47;;;;;;;-2.77;100.00;102334.69;6208675;23;20098;-83
2024/01/08 05:17:32;;;;;;;4.25;2.75;;;;;;;-2.75;100.00;102334.03;6183736;23;20901;-82
2024/01/08 05:20:01;;;;;;;4.85;2.40;;;;;;;-2.83;100.00;102341.16;6210373;23;20748;-83
2024/01/08 05:22:28;;;;;;;3.60;2.10;;;;;;;-2.88;100.00;102337.38;6181615;23;20389;-84
2024/01/08 05:24:55;;;;;;;2.90;1.83;;;;;;;-2.95;100.00;102341.94;6185009;23;20027;-83
2024/01/08 05:27:21;;;;;;;5.78;2.47;;;;;;;-3.05;97.80;102350.59;6208863;23;20051;-81
2024/01/08 05:29:47;;;;;;;2.47;2.25;;;;;;;-3.04;94.91;102347.28;6187259;23;20042;-82
2024/01/08 05:32:14;;;;;;;3.10;2.20;;;;;;;-3.06;93.50;102346.28;6184859;23;20024;-83
2024/01/08 05:34:41;;;;;;;3.60;2.28;;;;;;;-3.12;88.40;102351.81;6211734;23;20035;-83
2024/01/08 05:37:08;;;;;;;2.63;2.30;;;;;;;-3.22;85.49;102362.16;6185357;23;20043;-82
2024/01/08 05:39:38;;;;;;;4.25;2.55;;;;;;;-3.18;87.11;102366.72;6186019;23;20130;-82
2024/01/08 05:42:05;;;;;;;5.10;2.75;;;;;;;-3.25;87.63;102370.50;6208888;23;20566;-82
2024/01/08 05:44:32;;;;;;;4.78;3.00;;;;;;;-3.33;85.80;102369.94;6235040;23;20059;-81
2024/01/08 05:46:58;;;;;;;4.40;2.00;;;;;;;-3.47;84.02;102368.00;6184210;23;20026;-81
2024/01/08 05:49:25;;;;;;;3.03;2.03;;;;;;;-3.47;84.56;102378.25;6185876;23;20055;-81
2024/01/08 05:51:54;;;;;;;3.38;1.95;;;;;;;-3.46;85.73;102374.03;6182670;23;20739;-84
2024/01/08 05:54:21;;;;;;;3.15;2.40;;;;;;;-3.48;84.25;102389.28;6207629;23;20052;-83
2024/01/08 05:56:48;;;;;;;2.83;2.27;;;;;;;-3.57;83.72;102386.91;6184294;23;20016;-82
2024/01/08 05:59:14;;;;;;;7.90;2.80;;;;;;;-3.62;81.66;102394.97;6186340;23;20082;-84
2024/01/08 06:01:42;;;;;;;3.40;2.10;;;;;;;-3.71;80.46;102392.63;6184925;23;20102;-83
2024/01/08 06:04:10;;;;;;;5.28;2.53;;;;;;;-3.71;79.30;102393.50;6184744;23;20024;-84
2024/01/08 06:06:37;;;;;;;2.35;1.77;;;;;;;-3.74;76.82;102403.53;6186282;23;20402;-82
2024/01/08 06:09:04;;;;;;;4.25;1.90;;;;;;;-3.74;76.54;102403.53;6211141;23;20473;-85
2024/01/08 06:11:30;;;;;;;7.63;2.33;;;;;;;-3.79;75.98;102419.28;6209227;23;20032;-83
2024/01/08 06:13:57;;;;;;;3.73;1.70;;;;;;;-3.85;73.12;102410.34;6210789;23;20020;-83
2024/01/08 06:16:23;;;;;;;4.30;2.33;;;;;;;-3.85;72.43;102415.47;6185539;23;20197;-83
2024/01/08 06:18:50;;;;;;;3.50;2.30;;;;;;;-3.89;71.58;102407.44;6186941;23;20020;-82
2024/01/08 06:21:18;;;;;;;4.37;2.47;;;;;;;-3.93;72.09;102413.97;6182568;23;20016;-84
2024/01/08 06:23:46;;;;;;;2.22;1.80;;;;;;;-4.03;69.78;102419.16;6211042;23;20024;-83
2024/01/08 06:26:13;;;;;;;4.72;2.63;;;;;;;-4.12;68.88;102423.53;6185828;23;20020;-83
2024/01/08 06:28:40;;;;;;;3.23;1.90;;;;;;;-4.10;68.70;102414.34;6212283;23;20024;-84
2024/01/08 06:31:07;;;;;;;3.47;2.17;;;;;;;-4.15;67.83;102424.19;6186092;23;20450;-85
2024/01/08 06:33:34;;;;;;;4.47;2.13;;;;;;;-4.11;68.78;102435.56;6214013;23;20365;-85
2024/01/08 06:36:01;;;;;;;4.10;3.47;;;;;;;-4.13;67.99;102429.41;6213419;23;20012;-84
2024/01/08 06:38:28;;;;;;;3.13;2.50;;;;;;;-4.13;68.21;102430.34;6186889;23;20016;-82
2024/01/08 06:40:55;;;;;;;4.27;2.10;;;;;;;-4.17;67.87;102439.41;6213512;23;20027;-85
2024/01/08 06:43:27;;;;;;;3.13;2.13;;;;;;;-4.20;66.52;102434.06;6187456;23;20027;-84
2024/01/08 06:45:57;;;;;;;4.70;2.80;;;;;;;-4.19;66.71;102440.06;6212552;23;20028;-83
2024/01/08 06:48:24;;;;;;;3.43;2.07;;;;;;;-4.36;63.17;102444.72;6187916;23;20020;-83
2024/01/08 06:50:54;;;;;;;4.10;1.93;;;;;;;-4.35;63.46;102445.63;6189244;23;20409;-83
2024/01/08 06:53:23;;;;;;;4.67;2.43;;;;;;;-4.34;63.22;102457.59;6213468;23;20098;-83
2024/01/08 06:55:50;;;;;;;3.90;3.10;;;;;;;-4.42;62.46;102459.56;6186572;23;20031;-84
2024/01/08 06:58:16;;;;;;;2.83;1.93;;;;;;;-4.40;63.03;102463.13;6187609;23;20016;-84
2024/01/08 07:00:43;;;;;;;3.47;2.00;;;;;;;-4.46;62.46;102472.84;6213329;23;20024;-83
2024/01/08 07:03:10;;;;;;;6.33;2.33;;;;;;;-4.53;62.25;102462.91;6188177;23;20428;-84
2024/01/08 07:05:36;;;;;;;2.60;1.97;;;;;;;-4.46;62.94;102471.97;6214470;23;20074;-83
2024/01/08 07:08:07;;;;;;;5.00;2.40;;;;;;;-4.51;62.04;102475.06;6213440;23;20016;-85
2024/01/08 07:10:38;;;;;;;4.83;3.03;;;;;;;-4.48;62.74;102476.97;6210951;23;20369;-84
2024/01/08 07:13:05;;;;;;;5.10;2.53;;;;;;;-4.49;63.49;102480.28;6188265;23;20028;-84
2024/01/08 07:15:43;;;;;;;4.77;2.00;;;;;;;-4.60;62.74;102487.09;6215890;23;20099;-84
2024/01/08 07:18:11;;;;;;;4.87;2.53;;;;;;;-4.60;62.82;102484.53;6213736;23;20264;-85
2024/01/08 07:20:39;;;;;;;2.87;2.63;;;;;;;-4.61;63.21;102486.97;6189675;23;20016;-84
2024/01/08 07:23:11;;;;;;;3.53;2.57;;;;;;;-4.60;64.28;102486.16;6215343;23;20094;-85
2024/01/08 07:25:42;;;;;;;1.90;1.63;;;;;;;-4.65;63.70;102489.25;6215455;23;20016;-85
2024/01/08 07:28:15;;;;;;;2.73;2.10;;;;;;;-4.70;64.78;102487.97;6189914;23;20020;-84
2024/01/08 07:30:42;;;;;;;4.77;2.80;;;;;;;-4.66;64.85;102487.44;6189804;23;20389;-84
2024/01/08 07:33:08;;;;;;;6.10;3.00;;;;;;;-4.63;65.41;102499.59;6216035;23;20027;-85
2024/01/08 07:35:38;;;;;;;3.13;2.43;;;;;;;-4.71;63.65;102505.75;6214806;23;20551;-84
2024/01/08 07:38:06;;;;;;;3.83;2.20;;;;;;;-4.79;62.08;102494.88;6189247;23;20013;-84
2024/01/08 07:40:33;;;;;;;5.93;2.67;;;;;;;-4.77;61.62;102503.56;6189170;23;20388;-84
2024/01/08 07:43:00;;;;;;;8.80;2.83;;;;;;;-4.80;62.01;102508.41;6189571;23;20024;-84
2024/01/08 07:45:28;;;;;;;7.67;2.93;;;;;;;-4.80;62.49;102516.06;6213857;23;20016;-84
2024/01/08 07:47:57;;;;;;;2.93;2.53;;;;;;;-4.79;62.73;102517.88;6189894;23;20039;-84
2024/01/08 07:50:24;;;;;;;4.20;2.90;;;;;;;-4.83;63.31;102526.06;6213421;23;20354;-84
2024/01/08 07:52:53;;;;;;;6.47;3.00;;;;;;;-4.82;63.60;102525.28;6189757;23;20020;-83
2024/01/08 07:55:20;;;;;;;4.10;2.47;;;;;;;-4.83;64.38;102526.06;6188598;23;20361;-84
2024/01/08 07:57:48;;;;;;;2.83;1.67;;;;;;;-4.85;62.65;102525.94;6186404;23;20349;-84
2024/01/08 08:00:15;;;;;;;3.70;1.93;;;;;;;-4.99;62.27;102527.31;6188451;23;20457;-83
2024/01/08 08:02:47;;;;;;;4.70;2.13;;;;;;;-5.06;61.19;102526.66;6214477;23;20444;-84
2024/01/08 08:05:14;;;;;;;2.13;1.87;;;;;;;-4.98;62.43;102533.31;6192913;23;20027;-83
2024/01/08 08:07:42;;;;;;;3.63;1.87;;;;;;;-4.97;61.71;102536.78;6214284;23;20020;-84
2024/01/08 08:10:10;;;;;;;2.93;2.30;;;;;;;-4.97;61.83;102541.88;6189801;23;20024;-83
2024/01/08 08:12:36;;;;;;;7.10;2.90;;;;;;;-5.02;61.04;102542.38;6214751;23;20074;-82
2024/01/08 08:15:03;;;;;;;3.83;2.37;;;;;;;-5.05;60.10;102536.13;6215121;23;20048;-83
2024/01/08 08:17:31;;;;;;;5.07;2.43;;;;;;;-5.04;60.02;102540.47;6215312;23;20020;-83
2024/01/08 08:19:57;;;;;;;6.87;2.40;;;;;;;-5.03;60.21;102547.34;6214841;23;20445;-84
2024/01/08 08:22:24;;;;;;;3.70;2.50;;;;;;;-5.03;59.85;102553.38;6214684;23;20115;-83
2024/01/08 08:24:51;;;;;;;3.83;2.80;;;;;;;-4.94;60.31;102558.38;6190150;23;20031;-84
2024/01/08 08:27:17;;;;;;;3.50;2.30;;;;;;;-4.90;59.89;102562.06;6189958;23;20563;-84
2024/01/08 08:29:47;;;;;;;7.10;2.10;;;;;;;-4.92;60.98;102558.50;6215523;23;20425;-83
2024/01/08 08:32:14;;;;;;;4.10;2.30;;;;;;;-4.95;60.96;102563.31;6191695;23;20028;-83
2024/01/08 08:34:41;;;;;;;9.80;2.20;;;;;;;-4.88;61.34;102565.66;6191296;23;20055;-84
2024/01/08 08:37:08;;;;;;;8.20;2.47;;;;;;;-4.82;62.53;102574.72;6214620;23;20674;-84
2024/01/08 08:39:36;;;;;;;4.83;2.20;;;;;;;-4.95;60.53;102576.09;6213959;23;20505;-84
2024/01/08 08:42:08;;;;;;;4.27;2.93;;;;;;;-4.94;60.80;102575.34;6190220;23;20024;-84
2024/01/08 08:44:34;;;;;;;7.87;2.57;;;;;;;-4.99;60.57;102580.94;6189790;23;20024;-84
2024/01/08 08:47:03;;;;;;;11.00;2.70;;;;;;;-4.92;60.44;102574.69;6189614;23;20108;-86
2024/01/08 08:49:29;;;;;;;4.53;1.93;;;;;;;-4.91;60.16;102588.38;6188885;23;20314;-83
2024/01/08 08:51:57;;;;;;;2.63;2.40;;;;;;;-4.99;59.87;102592.84;6190201;23;20074;-86
2024/01/08 08:54:24;;;;;;;7.50;3.70;;;;;;;-4.94;59.93;102598.31;6214305;23;20043;-86
2024/01/08 08:56:51;;;;;;;2.27;1.80;;;;;;;-4.83;60.79;102597.59;6214123;23;20027;-85
2024/01/08 08:59:17;;;;;;;5.67;2.90;;;;;;;-4.79;61.24;102596.19;6213566;23;20020;-85
2024/01/08 09:01:44;;;;;;;3.30;2.50;;;;;;;-4.88;60.69;102603.97;6188920;23;20020;-85
2024/01/08 09:04:13;;;;;;;7.00;3.20;;;;;;;-4.79;60.65;102603.84;6190778;23;20055;-84
2024/01/08 09:06:39;;;;;;;4.27;2.13;;;;;;;-4.75;59.67;102608.47;6189716;23;20106;-86
2024/01/08 09:09:08;;;;;;;3.63;2.70;;;;;;;-4.80;59.74;102615.72;6214788;23;20024;-85
2024/01/08 09:11:37;;;;;;;3.53;2.50;;;;;;;-4.77;59.23;102623.66;6187496;23;20032;-86
2024/01/08 09:14:03;;;;;;;5.47;3.20;;;;;;;-4.69;58.56;102627.75;6190490;23;20020;-85
2024/01/08 09:16:30;;;;;;;7.50;3.07;;;;;;;-4.69;59.35;102620.09;6211815;23;20027;-85
2024/01/08 09:18:56;;;;;;;4.47;2.53;;;;;;;-4.63;58.99;102624.81;6190236;23;20352;-84
2024/01/08 09:21:23;;;;;;;3.17;2.23;;;;;;;-4.60;58.94;102629.28;6187879;23;20070;-86
2024/01/08 09:23:49;;;;;;;2.37;2.17;;;;;;;-4.65;58.85;102637.47;6189023;23;20024;-86
2024/01/08 09:26:16;;;;;;;4.50;2.57;;;;;;;-4.66;58.08;102637.34;6212599;23;20352;-85
2024/01/08 09:28:43;;;;;;;3.73;1.77;;;;;;;-4.65;58.56;102640.03;6188268;23;20483;-86
2024/01/08 09:31:10;;;;;;;5.73;3.30;;;;;;;-4.75;57.71;102634.88;6188971;23;20031;-85
2024/01/08 09:33:36;;;;;;;7.63;2.97;;;;;;;-4.65;58.31;102649.38;6213126;23;20581;-86
2024/01/08 09:36:03;;;;;;;4.93;2.17;;;;;;;-4.60;57.93;102640.44;6188528;23;20020;-85
2024/01/08 09:38:29;;;;;;;4.07;2.53;;;;;;;-4.58;57.51;102648.22;6189331;23;20051;-84
2024/01/08 09:40:56;;;;;;;4.77;2.10;;;;;;;-4.57;57.53;102640.69;6188637;23;20030;-84
2024/01/08 09:43:23;;;;;;;7.10;2.40;;;;;;;-4.69;57.30;102643.09;6213678;23;20020;-85
2024/01/08 09:46:07;;;;;;;11.20;3.07;;;;;;;-4.71;57.08;102638.59;6188268;23;20020;-85
2024/01/08 09:48:35;;;;;;;4.78;1.75;;;;;;;-4.56;57.37;102636.44;6188319;23;20017;-85
2024/01/08 09:51:03;;;;;;;4.43;2.73;;;;;;;-4.51;57.25;102635.16;6214168;23;20018;-85
2024/01/08 09:53:32;;;;;;;3.57;2.60;;;;;;;-4.57;55.88;102640.69;6188663;23;20408;-85
2024/01/08 09:56:00;;;;;;;4.67;2.60;;;;;;;-4.50;56.53;102642.09;6187299;23;20024;-84
2024/01/08 09:58:27;;;;;;;3.60;2.27;;;;;;;-4.57;55.58;102650.91;6211392;23;21014;-85
2024/01/08 10:00:54;;;;;;;3.57;2.67;;;;;;;-4.61;55.82;102646.28;6212537;23;20016;-85
2024/01/08 10:03:21;;;;;;;4.03;2.50;;;;;;;-4.56;55.31;102659.44;6187965;23;20024;-84
2024/01/08 10:05:48;;;;;;;3.07;2.33;;;;;;;-4.70;55.24;102655.75;6213492;23;20020;-83
2024/01/08 10:08:15;;;;;;;6.37;3.00;;;;;;;-4.60;56.01;102660.88;6189925;23;20074;-84
2024/01/08 10:10:41;;;;;;;3.17;2.30;;;;;;;-4.49;56.02;102655.00;6188435;23;20020;-83
2024/01/08 10:13:10;;;;;;;3.87;2.43;;;;;;;-4.51;56.51;102665.84;6214731;23;20020;-83
2024/01/08 10:15:37;;;;;;;5.50;3.63;;;;;;;-4.41;56.19;102659.88;6188505;23;20461;-83
2024/01/08 10:18:08;;;;;;;2.33;1.90;;;;;;;-4.43;56.21;102654.63;6187977;23;20070;-84
2024/01/08 10:20:35;;;;;;;7.87;2.20;;;;;;;-4.40;55.53;102657.44;6187735;23;20187;-85
2024/01/08 10:23:10;;;;;;;4.13;2.60;;;;;;;-4.50;55.28;102657.41;6188301;23;20066;-86
2024/01/08 10:25:39;;;;;;;5.93;2.40;;;;;;;-4.39;56.03;102656.66;6211650;23;20020;-84
2024/01/08 10:28:17;;;;;;;3.53;2.80;;;;;;;-4.43;54.84;102663.94;6213710;23;20016;-84
2024/01/08 10:30:43;;;;;;;7.80;1.90;;;;;;;-4.41;54.77;102660.75;6186879;23;20607;-85
2024/01/08 10:33:10;;;;;;;4.50;3.42;;;;;;;-4.26;55.88;102647.47;6188663;23;20400;-83
2024/01/08 10:35:37;;;;;;;5.23;2.70;;;;;;;-4.28;56.25;102643.91;6187188;23;20035;-83
2024/01/08 10:38:04;;;;;;;5.23;2.40;;;;;;;-4.39;55.54;102650.69;6212930;23;20020;-83
2024/01/08 10:40:31;;;;;;;5.03;3.33;;;;;;;-4.43;55.65;102657.19;6187628;23;20054;-82
2024/01/08 10:42:57;;;;;;;3.37;3.00;;;;;;;-4.45;55.96;102652.72;6188253;23;20051;-85
2024/01/08 10:45:24;;;;;;;6.73;2.60;;;;;;;-4.49;55.99;102651.53;6212344;23;20020;-84
2024/01/08 10:48:11;;;;;;;2.93;2.63;;;;;;;-4.37;56.33;102646.56;6187426;23;20078;-84
2024/01/08 10:50:39;;;;;;;11.77;2.60;;;;;;;-4.29;56.42;102645.53;6190044;23;20034;-84
2024/01/08 10:53:15;;;;;;;10.80;3.53;;;;;;;-4.27;56.53;102651.69;6215759;23;20393;-84
2024/01/08 10:55:43;;;;;;;8.80;4.30;;;;;;;-4.13;56.63;102644.25;6189006;23;20092;-84
2024/01/08 10:58:18;;;;;;;8.13;3.17;;;;;;;-4.16;56.74;102652.56;6190525;23;20334;-82
2024/01/08 11:00:45;;;;;;;9.87;4.30;;;;;;;-4.06;57.19;102655.13;6189094;23;20372;-83
2024/01/08 11:03:11;;;;;;;4.23;3.43;;;;;;;-3.98;57.39;102653.22;6215561;23;20019;-82
2024/01/08 11:05:39;;;;;;;4.70;2.47;;;;;;;-4.13;56.96;102651.94;6189508;23;20024;-84
2024/01/08 11:08:06;;;;;;;6.65;3.08;;;;;;;-4.09;57.36;102647.22;6190314;23;20031;-86
2024/01/08 11:10:33;;;;;;;3.43;2.37;;;;;;;-4.07;57.47;102650.78;6189378;23;20321;-85
2024/01/08 11:13:00;;;;;;;9.00;3.20;;;;;;;-4.07;57.24;102653.34;6189865;23;20028;-84
2024/01/08 11:15:28;;;;;;;6.88;2.58;;;;;;;-4.18;57.66;102656.69;6213817;23;20031;-85
2024/01/08 11:17:58;;;;;;;9.83;2.90;;;;;;;-4.22;57.13;102652.97;6189421;23;20036;-84
2024/01/08 11:20:49;;;;;;;2.42;2.22;;;;;;;-4.22;57.82;102652.97;6213005;23;20082;-82
2024/01/08 11:23:38;;;;;;;5.53;2.67;;;;;;;-4.16;57.83;102658.59;6214315;23;20028;-84